sensor_id;sensor_type;location;lat;lon;timestamp;temperature;humidity
30288;DHT22;17103;48.316;11.558;2022-08-25T00:01:15;25.80;43.50
30288;DHT22;17103;48.316;11.558;2022-08-25T00:03:42;25.80;43.50
30288;DHT22;17103;48.316;11.558;2022-08-25T00:06:09;25.80;43.60
30288;DHT22;17103;48.316;11.558;2022-08-25T00:08:35;25.80;43.60
30288;DHT22;17103;48.316;11.558;2022-08-25T00:11:11;25.70;43.60
30288;DHT22;17103;48.316;11.558;2022-08-25T00:13:42;25.70;43.90
30288;DHT22;17103;48.316;11.558;2022-08-25T00:16:14;25.60;43.70
30288;DHT22;17103;48.316;11.558;2022-08-25T00:18:43;25.70;43.80
30288;DHT22;17103;48.316;11.558;2022-08-25T00:21:13;25.60;43.80
30288;DHT22;17103;48.316;11.558;2022-08-25T00:23:43;25.60;43.80
30288;DHT22;17103;48.316;11.558;2022-08-25T00:26:10;25.60;43.80
30288;DHT22;17103;48.316;11.558;2022-08-25T00:28:36;25.60;43.80
30288;DHT22;17103;48.316;11.558;2022-08-25T00:31:04;25.60;43.90
30288;DHT22;17103;48.316;11.558;2022-08-25T00:33:30;25.50;44.00
30288;DHT22;17103;48.316;11.558;2022-08-25T00:35:56;25.50;43.90
30288;DHT22;17103;48.316;11.558;2022-08-25T00:38:23;25.50;44.10
30288;DHT22;17103;48.316;11.558;2022-08-25T00:40:49;25.50;44.10
30288;DHT22;17103;48.316;11.558;2022-08-25T00:43:58;25.40;44.00
30288;DHT22;17103;48.316;11.558;2022-08-25T00:46:27;25.40;44.40
30288;DHT22;17103;48.316;11.558;2022-08-25T00:49:02;25.40;44.20
30288;DHT22;17103;48.316;11.558;2022-08-25T00:51:41;25.40;44.40
30288;DHT22;17103;48.316;11.558;2022-08-25T00:54:12;25.30;44.50
30288;DHT22;17103;48.316;11.558;2022-08-25T00:56:40;25.30;44.40
30288;DHT22;17103;48.316;11.558;2022-08-25T00:59:06;25.40;44.10
30288;DHT22;17103;48.316;11.558;2022-08-25T01:01:32;25.30;44.20
30288;DHT22;17103;48.316;11.558;2022-08-25T01:03:58;25.30;44.30
30288;DHT22;17103;48.316;11.558;2022-08-25T01:06:25;25.40;44.40
30288;DHT22;17103;48.316;11.558;2022-08-25T01:08:51;25.20;44.40
30288;DHT22;17103;48.316;11.558;2022-08-25T01:11:19;25.20;44.50
30288;DHT22;17103;48.316;11.558;2022-08-25T01:13:55;25.20;44.70
30288;DHT22;17103;48.316;11.558;2022-08-25T01:16:21;25.20;44.90
30288;DHT22;17103;48.316;11.558;2022-08-25T01:18:53;25.20;44.70
30288;DHT22;17103;48.316;11.558;2022-08-25T01:21:21;25.20;44.90
30288;DHT22;17103;48.316;11.558;2022-08-25T01:23:48;25.10;44.80
30288;DHT22;17103;48.316;11.558;2022-08-25T01:28:44;25.10;44.70
30288;DHT22;17103;48.316;11.558;2022-08-25T01:31:30;25.10;44.90
30288;DHT22;17103;48.316;11.558;2022-08-25T01:33:56;25.10;44.80
30288;DHT22;17103;48.316;11.558;2022-08-25T01:36:24;25.00;44.60
30288;DHT22;17103;48.316;11.558;2022-08-25T01:38:50;25.10;45.00
30288;DHT22;17103;48.316;11.558;2022-08-25T01:41:30;25.00;45.00
30288;DHT22;17103;48.316;11.558;2022-08-25T01:44:02;25.00;45.20
30288;DHT22;17103;48.316;11.558;2022-08-25T01:46:31;25.00;45.00
30288;DHT22;17103;48.316;11.558;2022-08-25T01:48:58;25.00;44.80
30288;DHT22;17103;48.316;11.558;2022-08-25T01:51:28;25.00;45.00
30288;DHT22;17103;48.316;11.558;2022-08-25T01:53:54;24.90;45.10
30288;DHT22;17103;48.316;11.558;2022-08-25T01:56:20;25.00;45.20
30288;DHT22;17103;48.316;11.558;2022-08-25T01:58:47;24.90;45.10
30288;DHT22;17103;48.316;11.558;2022-08-25T02:01:21;24.90;45.20
30288;DHT22;17103;48.316;11.558;2022-08-25T02:03:50;25.00;45.40
30288;DHT22;17103;48.316;11.558;2022-08-25T02:06:22;24.90;45.40
30288;DHT22;17103;48.316;11.558;2022-08-25T02:08:51;24.90;45.50
30288;DHT22;17103;48.316;11.558;2022-08-25T02:11:16;24.90;45.50
30288;DHT22;17103;48.316;11.558;2022-08-25T02:13:42;24.80;45.30
30288;DHT22;17103;48.316;11.558;2022-08-25T02:16:09;24.80;45.40
30288;DHT22;17103;48.316;11.558;2022-08-25T02:18:39;24.80;45.50
30288;DHT22;17103;48.316;11.558;2022-08-25T02:21:05;24.80;45.60
30288;DHT22;17103;48.316;11.558;2022-08-25T02:23:32;24.80;45.70
30288;DHT22;17103;48.316;11.558;2022-08-25T02:25:57;24.80;45.80
30288;DHT22;17103;48.316;11.558;2022-08-25T02:28:24;24.70;45.70
30288;DHT22;17103;48.316;11.558;2022-08-25T02:30:50;24.80;45.80
30288;DHT22;17103;48.316;11.558;2022-08-25T02:33:18;24.70;45.90
30288;DHT22;17103;48.316;11.558;2022-08-25T02:35:43;24.70;45.90
30288;DHT22;17103;48.316;11.558;2022-08-25T02:38:09;24.70;46.00
30288;DHT22;17103;48.316;11.558;2022-08-25T02:40:36;24.80;46.10
30288;DHT22;17103;48.316;11.558;2022-08-25T02:43:02;24.60;45.90
30288;DHT22;17103;48.316;11.558;2022-08-25T02:45:28;24.50;45.90
30288;DHT22;17103;48.316;11.558;2022-08-25T02:47:55;24.70;46.00
30288;DHT22;17103;48.316;11.558;2022-08-25T02:50:20;24.60;46.10
30288;DHT22;17103;48.316;11.558;2022-08-25T02:52:46;24.70;46.20
30288;DHT22;17103;48.316;11.558;2022-08-25T02:55:16;24.60;46.10
30288;DHT22;17103;48.316;11.558;2022-08-25T02:57:41;24.70;46.40
30288;DHT22;17103;48.316;11.558;2022-08-25T03:00:11;24.60;46.30
30288;DHT22;17103;48.316;11.558;2022-08-25T03:02:38;24.60;46.40
30288;DHT22;17103;48.316;11.558;2022-08-25T03:05:06;24.60;46.40
30288;DHT22;17103;48.316;11.558;2022-08-25T03:07:33;24.60;46.40
30288;DHT22;17103;48.316;11.558;2022-08-25T03:09:58;24.50;46.40
30288;DHT22;17103;48.316;11.558;2022-08-25T03:12:24;24.50;46.40
30288;DHT22;17103;48.316;11.558;2022-08-25T03:14:50;24.50;46.50
30288;DHT22;17103;48.316;11.558;2022-08-25T03:17:15;24.60;46.60
30288;DHT22;17103;48.316;11.558;2022-08-25T03:19:41;24.50;46.60
30288;DHT22;17103;48.316;11.558;2022-08-25T03:22:07;24.50;46.50
30288;DHT22;17103;48.316;11.558;2022-08-25T03:24:32;24.50;46.60
30288;DHT22;17103;48.316;11.558;2022-08-25T03:26:58;24.50;46.60
30288;DHT22;17103;48.316;11.558;2022-08-25T03:29:29;24.50;46.60
30288;DHT22;17103;48.316;11.558;2022-08-25T03:31:56;24.50;46.70
30288;DHT22;17103;48.316;11.558;2022-08-25T03:34:27;24.40;46.70
30288;DHT22;17103;48.316;11.558;2022-08-25T03:36:57;24.50;46.80
30288;DHT22;17103;48.316;11.558;2022-08-25T03:39:24;24.40;46.90
30288;DHT22;17103;48.316;11.558;2022-08-25T03:41:51;24.40;46.80
30288;DHT22;17103;48.316;11.558;2022-08-25T03:44:18;24.40;46.80
30288;DHT22;17103;48.316;11.558;2022-08-25T03:46:48;24.30;46.70
30288;DHT22;17103;48.316;11.558;2022-08-25T03:49:18;24.40;46.90
30288;DHT22;17103;48.316;11.558;2022-08-25T03:51:50;24.30;46.80
30288;DHT22;17103;48.316;11.558;2022-08-25T03:54:19;24.30;47.00
30288;DHT22;17103;48.316;11.558;2022-08-25T03:56:45;24.30;46.90
30288;DHT22;17103;48.316;11.558;2022-08-25T03:59:11;24.30;46.80
30288;DHT22;17103;48.316;11.558;2022-08-25T04:01:38;24.30;46.30
30288;DHT22;17103;48.316;11.558;2022-08-25T04:04:05;24.20;46.90
30288;DHT22;17103;48.316;11.558;2022-08-25T04:06:33;24.20;46.90
30288;DHT22;17103;48.316;11.558;2022-08-25T04:08:59;24.20;47.00
30288;DHT22;17103;48.316;11.558;2022-08-25T04:11:25;24.20;47.00
30288;DHT22;17103;48.316;11.558;2022-08-25T04:13:54;24.20;47.00
30288;DHT22;17103;48.316;11.558;2022-08-25T04:16:22;24.20;47.10
30288;DHT22;17103;48.316;11.558;2022-08-25T04:18:50;24.10;47.10
30288;DHT22;17103;48.316;11.558;2022-08-25T04:21:18;24.10;47.10
30288;DHT22;17103;48.316;11.558;2022-08-25T04:23:46;24.10;47.20
30288;DHT22;17103;48.316;11.558;2022-08-25T04:26:22;24.10;47.30
30288;DHT22;17103;48.316;11.558;2022-08-25T04:28:49;24.10;47.40
30288;DHT22;17103;48.316;11.558;2022-08-25T04:31:18;24.10;47.30
30288;DHT22;17103;48.316;11.558;2022-08-25T04:33:44;24.00;47.40
30288;DHT22;17103;48.316;11.558;2022-08-25T04:36:15;24.00;47.30
30288;DHT22;17103;48.316;11.558;2022-08-25T04:38:42;24.00;47.40
30288;DHT22;17103;48.316;11.558;2022-08-25T04:41:09;23.90;47.30
30288;DHT22;17103;48.316;11.558;2022-08-25T04:43:37;24.00;47.40
30288;DHT22;17103;48.316;11.558;2022-08-25T04:46:08;24.00;47.50
30288;DHT22;17103;48.316;11.558;2022-08-25T04:48:36;24.00;47.60
30288;DHT22;17103;48.316;11.558;2022-08-25T04:51:10;24.00;47.40
30288;DHT22;17103;48.316;11.558;2022-08-25T04:53:36;24.00;47.50
30288;DHT22;17103;48.316;11.558;2022-08-25T04:56:05;24.00;47.40
30288;DHT22;17103;48.316;11.558;2022-08-25T04:58:31;24.00;47.60
30288;DHT22;17103;48.316;11.558;2022-08-25T05:01:09;24.00;47.50
30288;DHT22;17103;48.316;11.558;2022-08-25T05:03:36;23.90;47.80
30288;DHT22;17103;48.316;11.558;2022-08-25T05:06:02;24.00;47.70
30288;DHT22;17103;48.316;11.558;2022-08-25T05:08:28;24.00;47.80
30288;DHT22;17103;48.316;11.558;2022-08-25T05:10:54;24.00;47.80
30288;DHT22;17103;48.316;11.558;2022-08-25T05:13:22;24.00;47.80
30288;DHT22;17103;48.316;11.558;2022-08-25T05:16:06;24.00;47.90
30288;DHT22;17103;48.316;11.558;2022-08-25T05:18:33;24.00;48.30
30288;DHT22;17103;48.316;11.558;2022-08-25T05:21:12;24.00;48.10
30288;DHT22;17103;48.316;11.558;2022-08-25T05:23:39;24.00;48.40
30288;DHT22;17103;48.316;11.558;2022-08-25T05:26:08;24.00;48.10
30288;DHT22;17103;48.316;11.558;2022-08-25T05:28:36;24.00;48.20
30288;DHT22;17103;48.316;11.558;2022-08-25T05:31:03;24.10;48.40
30288;DHT22;17103;48.316;11.558;2022-08-25T05:33:29;24.10;48.30
30288;DHT22;17103;48.316;11.558;2022-08-25T05:35:55;24.10;48.40
30288;DHT22;17103;48.316;11.558;2022-08-25T05:38:21;24.10;48.50
30288;DHT22;17103;48.316;11.558;2022-08-25T05:40:51;24.20;49.10
30288;DHT22;17103;48.316;11.558;2022-08-25T05:43:17;24.10;48.70
30288;DHT22;17103;48.316;11.558;2022-08-25T05:45:43;24.20;48.60
30288;DHT22;17103;48.316;11.558;2022-08-25T05:48:09;24.20;48.60
30288;DHT22;17103;48.316;11.558;2022-08-25T05:50:34;24.20;49.20
30288;DHT22;17103;48.316;11.558;2022-08-25T05:53:00;24.30;48.80
30288;DHT22;17103;48.316;11.558;2022-08-25T05:55:26;24.30;48.90
30288;DHT22;17103;48.316;11.558;2022-08-25T05:57:52;24.30;48.80
30288;DHT22;17103;48.316;11.558;2022-08-25T06:00:18;24.30;48.90
30288;DHT22;17103;48.316;11.558;2022-08-25T06:02:44;24.30;48.90
30288;DHT22;17103;48.316;11.558;2022-08-25T06:05:19;24.30;48.80
30288;DHT22;17103;48.316;11.558;2022-08-25T06:07:47;24.40;49.00
30288;DHT22;17103;48.316;11.558;2022-08-25T06:10:14;24.40;48.90
30288;DHT22;17103;48.316;11.558;2022-08-25T06:12:42;24.40;48.80
30288;DHT22;17103;48.316;11.558;2022-08-25T06:15:14;24.50;49.10
30288;DHT22;17103;48.316;11.558;2022-08-25T06:17:40;24.50;49.10
30288;DHT22;17103;48.316;11.558;2022-08-25T06:20:12;24.60;49.10
30288;DHT22;17103;48.316;11.558;2022-08-25T06:22:39;24.60;49.10
30288;DHT22;17103;48.316;11.558;2022-08-25T06:25:07;24.60;49.00
30288;DHT22;17103;48.316;11.558;2022-08-25T06:27:34;24.60;49.10
30288;DHT22;17103;48.316;11.558;2022-08-25T06:30:00;24.70;49.10
30288;DHT22;17103;48.316;11.558;2022-08-25T06:32:35;24.70;49.00
30288;DHT22;17103;48.316;11.558;2022-08-25T06:35:03;24.70;49.10
30288;DHT22;17103;48.316;11.558;2022-08-25T06:37:28;24.80;49.10
30288;DHT22;17103;48.316;11.558;2022-08-25T06:39:54;24.80;48.90
30288;DHT22;17103;48.316;11.558;2022-08-25T06:42:20;24.80;48.90
30288;DHT22;17103;48.316;11.558;2022-08-25T06:44:46;24.90;48.80
30288;DHT22;17103;48.316;11.558;2022-08-25T06:47:12;24.90;48.70
30288;DHT22;17103;48.316;11.558;2022-08-25T06:49:40;25.00;48.90
30288;DHT22;17103;48.316;11.558;2022-08-25T06:52:07;25.00;48.80
30288;DHT22;17103;48.316;11.558;2022-08-25T06:54:33;25.00;48.90
30288;DHT22;17103;48.316;11.558;2022-08-25T06:56:59;25.10;49.10
30288;DHT22;17103;48.316;11.558;2022-08-25T06:59:25;25.10;49.10
30288;DHT22;17103;48.316;11.558;2022-08-25T07:01:52;25.20;49.00
30288;DHT22;17103;48.316;11.558;2022-08-25T07:04:18;25.20;49.10
30288;DHT22;17103;48.316;11.558;2022-08-25T07:06:44;25.20;48.90
30288;DHT22;17103;48.316;11.558;2022-08-25T07:09:11;25.30;49.00
30288;DHT22;17103;48.316;11.558;2022-08-25T07:11:38;25.30;49.00
30288;DHT22;17103;48.316;11.558;2022-08-25T07:14:05;25.30;49.00
30288;DHT22;17103;48.316;11.558;2022-08-25T07:16:32;25.40;48.90
30288;DHT22;17103;48.316;11.558;2022-08-25T07:18:59;25.40;48.90
30288;DHT22;17103;48.316;11.558;2022-08-25T07:21:26;25.40;48.70
30288;DHT22;17103;48.316;11.558;2022-08-25T07:23:54;25.50;48.90
30288;DHT22;17103;48.316;11.558;2022-08-25T07:26:25;25.60;48.80
30288;DHT22;17103;48.316;11.558;2022-08-25T07:28:51;25.60;48.90
30288;DHT22;17103;48.316;11.558;2022-08-25T07:31:17;25.60;48.60
30288;DHT22;17103;48.316;11.558;2022-08-25T07:33:43;25.70;48.60
30288;DHT22;17103;48.316;11.558;2022-08-25T07:36:29;25.80;48.70
30288;DHT22;17103;48.316;11.558;2022-08-25T07:38:56;25.80;48.60
30288;DHT22;17103;48.316;11.558;2022-08-25T07:41:23;25.90;48.50
30288;DHT22;17103;48.316;11.558;2022-08-25T07:43:49;25.90;48.50
30288;DHT22;17103;48.316;11.558;2022-08-25T07:46:14;26.00;48.60
30288;DHT22;17103;48.316;11.558;2022-08-25T07:48:40;26.10;49.10
30288;DHT22;17103;48.316;11.558;2022-08-25T07:51:11;26.10;48.30
30288;DHT22;17103;48.316;11.558;2022-08-25T07:53:38;26.20;48.30
30288;DHT22;17103;48.316;11.558;2022-08-25T07:56:10;26.20;48.30
30288;DHT22;17103;48.316;11.558;2022-08-25T07:58:36;26.30;47.70
30288;DHT22;17103;48.316;11.558;2022-08-25T08:01:03;26.40;48.10
30288;DHT22;17103;48.316;11.558;2022-08-25T08:03:29;26.40;48.10
30288;DHT22;17103;48.316;11.558;2022-08-25T08:05:56;26.50;48.20
30288;DHT22;17103;48.316;11.558;2022-08-25T08:08:22;26.50;48.00
30288;DHT22;17103;48.316;11.558;2022-08-25T08:10:47;26.60;48.00
30288;DHT22;17103;48.316;11.558;2022-08-25T08:13:15;26.70;48.20
30288;DHT22;17103;48.316;11.558;2022-08-25T08:15:42;26.70;48.10
30288;DHT22;17103;48.316;11.558;2022-08-25T08:18:09;26.80;48.20
30288;DHT22;17103;48.316;11.558;2022-08-25T08:20:35;26.80;47.90
30288;DHT22;17103;48.316;11.558;2022-08-25T08:23:01;26.90;47.80
30288;DHT22;17103;48.316;11.558;2022-08-25T08:25:27;26.90;47.90
30288;DHT22;17103;48.316;11.558;2022-08-25T08:27:54;27.00;47.90
30288;DHT22;17103;48.316;11.558;2022-08-25T08:30:20;27.10;48.00
30288;DHT22;17103;48.316;11.558;2022-08-25T08:32:46;27.10;47.90
30288;DHT22;17103;48.316;11.558;2022-08-25T08:35:13;27.10;47.80
30288;DHT22;17103;48.316;11.558;2022-08-25T08:37:42;27.20;47.60
30288;DHT22;17103;48.316;11.558;2022-08-25T08:40:08;27.20;47.50
30288;DHT22;17103;48.316;11.558;2022-08-25T08:42:48;27.30;47.50
30288;DHT22;17103;48.316;11.558;2022-08-25T08:45:39;27.40;47.50
30288;DHT22;17103;48.316;11.558;2022-08-25T08:50:45;27.50;47.30
30288;DHT22;17103;48.316;11.558;2022-08-25T08:53:21;27.60;47.30
30288;DHT22;17103;48.316;11.558;2022-08-25T08:55:58;27.70;47.20
30288;DHT22;17103;48.316;11.558;2022-08-25T09:00:59;27.70;46.60
30288;DHT22;17103;48.316;11.558;2022-08-25T09:03:42;27.80;47.20
30288;DHT22;17103;48.316;11.558;2022-08-25T09:06:21;27.80;47.10
30288;DHT22;17103;48.316;11.558;2022-08-25T09:08:50;27.90;47.30
30288;DHT22;17103;48.316;11.558;2022-08-25T09:14:11;28.00;47.10
30288;DHT22;17103;48.316;11.558;2022-08-25T09:17:00;28.10;47.00
30288;DHT22;17103;48.316;11.558;2022-08-25T09:22:42;28.30;47.00
30288;DHT22;17103;48.316;11.558;2022-08-25T09:25:31;28.40;46.80
30288;DHT22;17103;48.316;11.558;2022-08-25T09:28:20;28.50;46.90
30288;DHT22;17103;48.316;11.558;2022-08-25T09:31:12;28.50;47.00
30288;DHT22;17103;48.316;11.558;2022-08-25T09:33:40;28.60;46.80
30288;DHT22;17103;48.316;11.558;2022-08-25T09:36:06;28.70;46.70
30288;DHT22;17103;48.316;11.558;2022-08-25T09:38:32;28.80;46.80
30288;DHT22;17103;48.316;11.558;2022-08-25T09:40:59;28.80;46.60
30288;DHT22;17103;48.316;11.558;2022-08-25T09:43:54;28.90;46.60
30288;DHT22;17103;48.316;11.558;2022-08-25T09:46:26;29.00;46.70
30288;DHT22;17103;48.316;11.558;2022-08-25T09:48:54;29.10;46.20
30288;DHT22;17103;48.316;11.558;2022-08-25T09:51:36;29.10;46.10
30288;DHT22;17103;48.316;11.558;2022-08-25T09:59:33;29.30;45.40
30288;DHT22;17103;48.316;11.558;2022-08-25T10:02:19;29.40;45.30
30288;DHT22;17103;48.316;11.558;2022-08-25T10:04:47;29.50;45.40
30288;DHT22;17103;48.316;11.558;2022-08-25T10:09:57;29.60;45.60
30288;DHT22;17103;48.316;11.558;2022-08-25T10:14:56;29.70;45.10
30288;DHT22;17103;48.316;11.558;2022-08-25T10:17:27;29.80;45.50
30288;DHT22;17103;48.316;11.558;2022-08-25T10:22:39;29.90;45.20
30288;DHT22;17103;48.316;11.558;2022-08-25T10:25:08;30.00;45.30
30288;DHT22;17103;48.316;11.558;2022-08-25T10:36:37;30.20;45.00
30288;DHT22;17103;48.316;11.558;2022-08-25T10:39:04;30.20;44.80
30288;DHT22;17103;48.316;11.558;2022-08-25T10:41:42;30.30;44.70
30288;DHT22;17103;48.316;11.558;2022-08-25T10:44:35;30.30;44.50
30288;DHT22;17103;48.316;11.558;2022-08-25T10:50:04;30.50;44.50
30288;DHT22;17103;48.316;11.558;2022-08-25T10:55:27;30.50;44.40
30288;DHT22;17103;48.316;11.558;2022-08-25T10:58:10;30.60;44.10
30288;DHT22;17103;48.316;11.558;2022-08-25T11:00:43;30.70;43.90
30288;DHT22;17103;48.316;11.558;2022-08-25T11:05:58;30.70;43.80
30288;DHT22;17103;48.316;11.558;2022-08-25T11:11:08;30.80;43.90
30288;DHT22;17103;48.316;11.558;2022-08-25T11:13:52;30.80;43.30
30288;DHT22;17103;48.316;11.558;2022-08-25T11:16:42;30.90;42.90
30288;DHT22;17103;48.316;11.558;2022-08-25T11:19:15;30.90;42.50
30288;DHT22;17103;48.316;11.558;2022-08-25T11:21:50;30.90;42.90
30288;DHT22;17103;48.316;11.558;2022-08-25T11:24:40;30.90;42.70
30288;DHT22;17103;48.316;11.558;2022-08-25T11:27:13;30.80;42.60
30288;DHT22;17103;48.316;11.558;2022-08-25T11:29:50;30.90;42.80
30288;DHT22;17103;48.316;11.558;2022-08-25T11:32:19;30.90;42.60
30288;DHT22;17103;48.316;11.558;2022-08-25T11:34:47;30.90;42.70
30288;DHT22;17103;48.316;11.558;2022-08-25T11:37:33;31.00;42.80
30288;DHT22;17103;48.316;11.558;2022-08-25T11:40:07;31.00;42.50
30288;DHT22;17103;48.316;11.558;2022-08-25T11:46:10;31.20;42.60
30288;DHT22;17103;48.316;11.558;2022-08-25T11:51:28;31.30;42.10
30288;DHT22;17103;48.316;11.558;2022-08-25T11:56:38;31.40;42.10
30288;DHT22;17103;48.316;11.558;2022-08-25T11:59:07;31.50;42.00
30288;DHT22;17103;48.316;11.558;2022-08-25T12:04:12;31.60;41.90
30288;DHT22;17103;48.316;11.558;2022-08-25T12:09:31;31.60;41.20
30288;DHT22;17103;48.316;11.558;2022-08-25T12:11:57;31.60;41.30
30288;DHT22;17103;48.316;11.558;2022-08-25T12:24:54;31.70;41.30
30288;DHT22;17103;48.316;11.558;2022-08-25T12:36:35;31.90;41.60
30288;DHT22;17103;48.316;11.558;2022-08-25T12:39:19;32.00;42.20
30288;DHT22;17103;48.316;11.558;2022-08-25T12:41:58;32.10;41.50
30288;DHT22;17103;48.316;11.558;2022-08-25T12:44:40;32.20;41.50
30288;DHT22;17103;48.316;11.558;2022-08-25T12:47:25;32.20;41.40
30288;DHT22;17103;48.316;11.558;2022-08-25T12:49:52;32.30;41.50
30288;DHT22;17103;48.316;11.558;2022-08-25T12:52:23;32.40;41.50
30288;DHT22;17103;48.316;11.558;2022-08-25T12:55:00;32.40;41.40
30288;DHT22;17103;48.316;11.558;2022-08-25T13:00:34;32.60;41.20
30288;DHT22;17103;48.316;11.558;2022-08-25T13:03:15;32.70;41.20
30288;DHT22;17103;48.316;11.558;2022-08-25T13:05:58;32.70;40.60
30288;DHT22;17103;48.316;11.558;2022-08-25T13:12:01;32.80;40.40
30288;DHT22;17103;48.316;11.558;2022-08-25T13:14:18;32.80;40.50
30288;DHT22;17103;48.316;11.558;2022-08-25T13:16:55;32.80;40.50
30288;DHT22;17103;48.316;11.558;2022-08-25T13:19:22;32.90;40.30
30288;DHT22;17103;48.316;11.558;2022-08-25T13:21:49;32.90;40.30
30288;DHT22;17103;48.316;11.558;2022-08-25T13:24:28;33.00;39.70
30288;DHT22;17103;48.316;11.558;2022-08-25T13:27:00;33.10;38.80
30288;DHT22;17103;48.316;11.558;2022-08-25T13:29:29;33.20;38.70
30288;DHT22;17103;48.316;11.558;2022-08-25T13:32:04;33.30;39.40
30288;DHT22;17103;48.316;11.558;2022-08-25T13:34:33;33.40;39.20
30288;DHT22;17103;48.316;11.558;2022-08-25T13:37:22;33.40;39.20
30288;DHT22;17103;48.316;11.558;2022-08-25T13:40:10;33.60;39.50
30288;DHT22;17103;48.316;11.558;2022-08-25T13:42:38;33.70;39.40
30288;DHT22;17103;48.316;11.558;2022-08-25T13:45:05;33.70;39.40
30288;DHT22;17103;48.316;11.558;2022-08-25T13:47:37;33.80;39.30
30288;DHT22;17103;48.316;11.558;2022-08-25T13:53:02;34.00;39.10
30288;DHT22;17103;48.316;11.558;2022-08-25T13:55:47;34.10;38.50
30288;DHT22;17103;48.316;11.558;2022-08-25T13:58:17;34.30;38.20
30288;DHT22;17103;48.316;11.558;2022-08-25T14:00:46;34.50;38.50
30288;DHT22;17103;48.316;11.558;2022-08-25T14:03:40;34.60;37.70
30288;DHT22;17103;48.316;11.558;2022-08-25T14:13:37;35.10;37.00
30288;DHT22;17103;48.316;11.558;2022-08-25T14:16:17;35.20;36.80
30288;DHT22;17103;48.316;11.558;2022-08-25T14:18:52;35.30;36.80
30288;DHT22;17103;48.316;11.558;2022-08-25T14:21:24;35.50;37.00
30288;DHT22;17103;48.316;11.558;2022-08-25T14:23:52;35.60;36.80
30288;DHT22;17103;48.316;11.558;2022-08-25T14:26:18;35.70;37.30
30288;DHT22;17103;48.316;11.558;2022-08-25T14:28:44;35.80;37.20
30288;DHT22;17103;48.316;11.558;2022-08-25T14:31:29;35.90;37.30
30288;DHT22;17103;48.316;11.558;2022-08-25T14:34:02;36.00;37.10
30288;DHT22;17103;48.316;11.558;2022-08-25T14:36:31;36.10;36.10
30288;DHT22;17103;48.316;11.558;2022-08-25T14:38:58;36.10;36.60
30288;DHT22;17103;48.316;11.558;2022-08-25T14:41:24;36.20;36.30
30288;DHT22;17103;48.316;11.558;2022-08-25T14:43:51;36.20;35.90
30288;DHT22;17103;48.316;11.558;2022-08-25T14:46:24;36.20;35.50
30288;DHT22;17103;48.316;11.558;2022-08-25T14:48:54;36.20;35.20
30288;DHT22;17103;48.316;11.558;2022-08-25T14:51:22;36.20;35.30
30288;DHT22;17103;48.316;11.558;2022-08-25T14:53:49;36.20;35.60
30288;DHT22;17103;48.316;11.558;2022-08-25T14:56:15;36.10;35.20
30288;DHT22;17103;48.316;11.558;2022-08-25T14:58:41;36.10;35.00
30288;DHT22;17103;48.316;11.558;2022-08-25T15:01:11;36.10;35.40
30288;DHT22;17103;48.316;11.558;2022-08-25T15:03:39;36.00;34.90
30288;DHT22;17103;48.316;11.558;2022-08-25T15:06:10;36.00;34.80
30288;DHT22;17103;48.316;11.558;2022-08-25T15:08:37;36.00;35.10
30288;DHT22;17103;48.316;11.558;2022-08-25T15:11:30;36.00;35.40
30288;DHT22;17103;48.316;11.558;2022-08-25T15:13:56;35.90;35.20
30288;DHT22;17103;48.316;11.558;2022-08-25T15:16:31;36.00;35.40
30288;DHT22;17103;48.316;11.558;2022-08-25T15:18:58;36.00;35.00
30288;DHT22;17103;48.316;11.558;2022-08-25T15:21:24;36.00;35.20
30288;DHT22;17103;48.316;11.558;2022-08-25T15:23:50;36.00;35.00
30288;DHT22;17103;48.316;11.558;2022-08-25T15:26:17;36.00;34.60
30288;DHT22;17103;48.316;11.558;2022-08-25T15:28:46;36.00;34.90
30288;DHT22;17103;48.316;11.558;2022-08-25T15:31:14;36.00;35.70
30288;DHT22;17103;48.316;11.558;2022-08-25T15:33:40;36.10;35.40
30288;DHT22;17103;48.316;11.558;2022-08-25T15:36:11;36.10;35.40
30288;DHT22;17103;48.316;11.558;2022-08-25T15:38:39;36.20;35.20
30288;DHT22;17103;48.316;11.558;2022-08-25T15:41:08;36.30;35.70
30288;DHT22;17103;48.316;11.558;2022-08-25T15:43:34;36.40;35.90
30288;DHT22;17103;48.316;11.558;2022-08-25T15:46:00;36.50;35.40
30288;DHT22;17103;48.316;11.558;2022-08-25T15:48:26;36.60;35.60
30288;DHT22;17103;48.316;11.558;2022-08-25T15:50:55;36.60;35.20
30288;DHT22;17103;48.316;11.558;2022-08-25T15:53:23;36.70;35.00
30288;DHT22;17103;48.316;11.558;2022-08-25T15:55:51;36.80;34.90
30288;DHT22;17103;48.316;11.558;2022-08-25T15:58:17;36.80;34.70
30288;DHT22;17103;48.316;11.558;2022-08-25T16:00:44;36.90;34.80
30288;DHT22;17103;48.316;11.558;2022-08-25T16:03:10;36.90;34.60
30288;DHT22;17103;48.316;11.558;2022-08-25T16:05:38;37.00;34.70
30288;DHT22;17103;48.316;11.558;2022-08-25T16:08:04;37.00;35.10
30288;DHT22;17103;48.316;11.558;2022-08-25T16:10:38;37.00;34.40
30288;DHT22;17103;48.316;11.558;2022-08-25T16:13:05;37.00;34.10
30288;DHT22;17103;48.316;11.558;2022-08-25T16:15:31;37.00;34.40
30288;DHT22;17103;48.316;11.558;2022-08-25T16:17:58;37.00;34.20
30288;DHT22;17103;48.316;11.558;2022-08-25T16:20:31;37.00;33.90
30288;DHT22;17103;48.316;11.558;2022-08-25T16:22:57;37.00;33.70
30288;DHT22;17103;48.316;11.558;2022-08-25T16:25:25;37.00;33.80
30288;DHT22;17103;48.316;11.558;2022-08-25T16:27:51;37.00;33.60
30288;DHT22;17103;48.316;11.558;2022-08-25T16:30:17;36.90;33.40
30288;DHT22;17103;48.316;11.558;2022-08-25T16:32:43;36.90;33.40
30288;DHT22;17103;48.316;11.558;2022-08-25T16:35:10;36.80;33.20
30288;DHT22;17103;48.316;11.558;2022-08-25T16:37:35;36.70;33.20
30288;DHT22;17103;48.316;11.558;2022-08-25T16:40:02;36.60;33.20
30288;DHT22;17103;48.316;11.558;2022-08-25T16:42:28;36.60;33.20
30288;DHT22;17103;48.316;11.558;2022-08-25T16:44:54;36.50;33.20
30288;DHT22;17103;48.316;11.558;2022-08-25T16:47:20;36.40;33.20
30288;DHT22;17103;48.316;11.558;2022-08-25T16:49:46;36.20;33.10
30288;DHT22;17103;48.316;11.558;2022-08-25T16:52:13;36.10;33.10
30288;DHT22;17103;48.316;11.558;2022-08-25T16:54:59;36.00;33.10
30288;DHT22;17103;48.316;11.558;2022-08-25T16:57:47;35.90;32.90
30288;DHT22;17103;48.316;11.558;2022-08-25T17:00:16;35.80;32.90
30288;DHT22;17103;48.316;11.558;2022-08-25T17:02:43;35.60;32.90
30288;DHT22;17103;48.316;11.558;2022-08-25T17:05:09;35.50;32.90
30288;DHT22;17103;48.316;11.558;2022-08-25T17:07:36;35.40;33.10
30288;DHT22;17103;48.316;11.558;2022-08-25T17:10:04;35.20;33.10